Аэропорт: Гянджа. Гянджа

ICAO: UBBG

METAR:
2024-07-24 14:00:00
UBBG 241400Z 16006KT 140V200 9999 VCTS FEW050CB BKN100 32/15 Q1001 NOSIG
TAF:
2024-07-24 11:00:00
TAF UBBG 241100Z 2412/2512 31010KT 9999 FEW040CB BKN080 TX34/2412Z TN21/2502Z 
  TEMPO 2412/2420 VRB14KT -TSRA SCT030CB BKN060 
  TEMPO 2421/2506 24008KT -SHRA